Corvallis Municipal Airport Corvallis US
ICAO: KCVO
IATA: CVO
Category: Medium
Scheduled Services: No

Elevation: 250 ft
TransAlt. 18000 ft.

Airport Communications:
CASCADE APP/DEP:127.5
AWOS 3:135.775
CTAF/UNICOM:123

KCVO Zoom In..

If you have problems with the map follow the link
https://www.worldairports.se/pages/airport.php?
ICAO=KCVO

Runways:

(A) RW 09 length 3545 ft width 75 ft
---- / hdg 94

(B) RW 17 length 5900 ft width 150 ft
ILS 111.90 / hdg 169

(C) RW 27 length 3545 ft width 75 ft
---- / hdg 274

(D) RW 35 length 5900 ft width 150 ft
---- / hdg 349

Location; KCVO
Day. 14 / Time. 20.56 Zulu
* Altimeter: 29.69
* Temperature: 10° c. 50°f.
* Wind from: 240° Speed 28 kn with Gusts up to 38 kn.
Dewpoint: 06° c.
Visibility: 10 Statute Miles.
Clouds: Few 3700 ft.
Clouds: Broken 8000 ft.
Clouds: Overcast 9500 ft.
Conditions: Light Rain.

KCVO 142056Z AUTO 24028G38KT 10SM -RA FEW037 BKN080 OVC095 10/06 A2969 RMK AO2 PK WND 24038/2047 RAB53 PRESRR SLP054 P0000 60000 T01000056 53017


Wind From 240°
Speed 28 kn.

 
 
jpsmedia.com for Web Design worldairports.se 2018   terms of use